Time;durP1;ratioP1;P1;durP2;ratioP2;P2;SDS_P1;SDS_P2;PMS_P1;PMS_P2;Temp;Humidity;BMP_temperature;BMP_pressure;BME280_temperature;BME280_humidity;BME280_pressure;Samples;Min_cycle;Max_cycle;Signal;HPM_P1;HPM_P2
2023/01/29 00:01:42;;;;;;;16.75;9.77;;;4.70;99.90;;;;;;5017778;28;20056;-83
2023/01/29 00:04:08;;;;;;;12.82;8.32;;;4.60;99.90;;;;;;5019353;28;20051;-81
2023/01/29 00:06:34;;;;;;;13.48;9.65;;;4.80;99.90;;;;;;5025718;28;20095;-83
2023/01/29 00:09:00;;;;;;;14.10;9.70;;;4.70;99.90;;;;;;5018942;28;20502;-82
2023/01/29 00:11:25;;;;;;;14.80;9.50;;;4.80;99.90;;;;;;5019964;28;20459;-79
2023/01/29 00:13:52;;;;;;;13.98;9.70;;;4.70;99.90;;;;;;5032144;28;20197;-82
2023/01/29 00:16:18;;;;;;;16.17;9.60;;;4.80;99.90;;;;;;5033845;28;20589;-82
2023/01/29 00:18:44;;;;;;;16.50;10.40;;;4.70;99.90;;;;;;5039739;28;20562;-82
2023/01/29 00:21:16;;;;;;;14.25;9.77;;;3.50;99.90;;;;;;5024089;28;20198;-82
2023/01/29 00:23:43;;;;;;;13.38;9.75;;;4.70;99.90;;;;;;5022430;28;20041;-81
2023/01/29 00:26:10;;;;;;;14.30;9.85;;;4.70;99.90;;;;;;5018508;28;20699;-82
2023/01/29 00:28:36;;;;;;;14.18;9.35;;;4.70;99.90;;;;;;5039770;28;20511;-82
2023/01/29 00:31:22;;;;;;;11.98;8.40;;;4.70;99.90;;;;;;5033576;28;20110;-83
2023/01/29 00:33:49;;;;;;;11.30;7.85;;;4.70;99.90;;;;;;5016257;28;20479;-83
2023/01/29 00:36:19;;;;;;;13.45;8.30;;;4.80;99.90;;;;;;5042043;28;20046;-81
2023/01/29 00:38:53;;;;;;;11.43;7.18;;;4.70;99.90;;;;;;5023760;28;20457;-81
2023/01/29 00:47:01;;;;;;;10.18;7.13;;;4.80;99.90;;;;;;5036105;28;20053;-81
2023/01/29 00:49:26;;;;;;;8.10;6.38;;;4.80;99.90;;;;;;5020575;28;20096;-83
2023/01/29 00:54:36;;;;;;;8.43;6.05;;;4.80;99.90;;;;;;5053026;28;20132;-82
2023/01/29 00:57:03;;;;;;;7.47;6.15;;;4.80;99.90;;;;;;5022410;28;20143;-82
2023/01/29 00:59:29;;;;;;;9.57;6.00;;;5.00;99.90;;;;;;5033777;28;20400;-82
2023/01/29 01:04:39;;;;;;;8.40;6.40;;;4.90;99.90;;;;;;5036523;28;20453;-82
2023/01/29 01:07:05;;;;;;;11.80;6.25;;;4.90;99.90;;;;;;5033320;28;20057;-82
2023/01/29 01:12:18;;;;;;;8.77;6.90;;;3.80;99.90;;;;;;5036082;28;20060;-81
2023/01/29 01:14:44;;;;;;;11.85;6.85;;;5.00;99.90;;;;;;5022261;28;20110;-82
2023/01/29 01:17:10;;;;;;;9.10;6.60;;;4.80;99.90;;;;;;5026847;28;20135;-82
2023/01/29 01:19:36;;;;;;;7.80;6.18;;;4.90;99.90;;;;;;5024527;28;20164;-82
2023/01/29 01:22:03;;;;;;;7.13;5.38;;;4.90;99.90;;;;;;5019014;28;20048;-82
2023/01/29 01:24:29;;;;;;;8.60;6.32;;;4.90;99.90;;;;;;5017417;28;20056;-82
2023/01/29 01:26:55;;;;;;;9.55;6.05;;;4.80;99.90;;;;;;5020915;28;20533;-82
2023/01/29 01:29:21;;;;;;;9.73;6.25;;;4.80;99.90;;;;;;5024997;28;20049;-82
2023/01/29 01:31:47;;;;;;;8.50;6.15;;;3.50;99.90;;;;;;5033800;28;20060;-82
2023/01/29 01:34:12;;;;;;;9.05;5.50;;;3.40;99.90;;;;;;5005861;28;20049;-83
2023/01/29 01:36:38;;;;;;;9.93;5.50;;;5.10;99.90;;;;;;5007045;28;20050;-82
2023/01/29 01:39:04;;;;;;;7.90;5.57;;;4.90;99.90;;;;;;5021190;28;20057;-82
2023/01/29 01:41:30;;;;;;;15.52;5.95;;;4.90;99.90;;;;;;5016766;28;20045;-81
2023/01/29 01:44:01;;;;;;;8.73;5.82;;;4.80;99.90;;;;;;5006545;28;20055;-82
2023/01/29 01:46:32;;;;;;;8.20;5.68;;;4.90;99.90;;;;;;5011214;28;20065;-82
2023/01/29 01:49:04;;;;;;;8.45;5.32;;;4.90;99.90;;;;;;5031279;28;20078;-82
2023/01/29 01:51:35;;;;;;;8.20;6.18;;;4.90;99.90;;;;;;5031737;28;20049;-81
2023/01/29 01:54:07;;;;;;;9.68;5.55;;;4.90;99.90;;;;;;5041250;28;20041;-82
2023/01/29 01:56:45;;;;;;;8.48;6.40;;;4.90;99.90;;;;;;5027111;28;20089;-82
2023/01/29 01:59:20;;;;;;;12.48;6.40;;;4.20;99.90;;;;;;5024109;28;20198;-82
2023/01/29 02:01:52;;;;;;;11.52;6.05;;;5.10;99.90;;;;;;5017886;28;20054;-81
2023/01/29 02:10:12;;;;;;;9.82;7.50;;;4.90;99.90;;;;;;5055438;28;20061;-82
2023/01/29 02:12:39;;;;;;;12.65;7.03;;;4.90;99.90;;;;;;5042969;28;20060;-81
2023/01/29 02:15:06;;;;;;;11.60;7.60;;;5.10;99.90;;;;;;5008961;28;20114;-81
2023/01/29 02:17:35;;;;;;;9.80;7.70;;;5.00;99.90;;;;;;5020411;28;20049;-82
2023/01/29 02:20:07;;;;;;;10.02;7.05;;;4.10;99.90;;;;;;5022253;28;20462;-82
2023/01/29 02:22:54;;;;;;;10.25;6.75;;;4.90;99.90;;;;;;5037935;28;20060;-83
2023/01/29 02:25:29;;;;;;;11.05;6.68;;;4.80;99.90;;;;;;5018734;28;20164;-82
2023/01/29 02:28:26;;;;;;;10.73;7.60;;;4.90;99.90;;;;;;5028410;28;20542;-81
2023/01/29 02:31:15;;;;;;;9.93;6.85;;;6.20;99.90;;;;;;5020562;28;20623;-82
2023/01/29 02:33:48;;;;;;;8.07;6.38;;;4.90;99.90;;;;;;5025756;28;20515;-82
2023/01/29 02:36:38;;;;;;;9.90;6.40;;;4.90;99.90;;;;;;5021552;28;20058;-82
2023/01/29 02:39:29;;;;;;;7.88;5.88;;;4.90;99.90;;;;;;5044590;28;20437;-82
2023/01/29 02:42:02;;;;;;;8.57;6.07;;;4.90;99.90;;;;;;5044105;28;20060;-82
2023/01/29 02:44:39;;;;;;;10.45;6.47;;;5.00;99.90;;;;;;5053746;28;20056;-82
2023/01/29 02:47:23;;;;;;;8.90;5.72;;;4.90;99.90;;;;;;5044597;28;20053;-82
2023/01/29 02:50:02;;;;;;;9.48;6.18;;;4.80;99.90;;;;;;5028545;28;20390;-82
2023/01/29 02:52:56;;;;;;;9.77;5.82;;;4.90;99.90;;;;;;5043843;28;20052;-82
2023/01/29 02:55:37;;;;;;;8.68;5.97;;;5.10;99.90;;;;;;5021573;28;20061;-82
2023/01/29 02:58:21;;;;;;;8.85;5.63;;;4.90;99.90;;;;;;5039611;28;20045;-82
2023/01/29 03:00:50;;;;;;;8.07;5.43;;;4.80;99.90;;;;;;5038221;28;20413;-82
2023/01/29 03:03:19;;;;;;;7.55;5.35;;;4.80;99.90;;;;;;5026391;28;20118;-82
2023/01/29 03:06:10;;;;;;;10.30;5.95;;;5.30;99.90;;;;;;5027876;28;20128;-82
2023/01/29 03:08:45;;;;;;;9.27;6.53;;;4.80;99.90;;;;;;5019826;28;20628;-82
2023/01/29 03:11:12;;;;;;;10.32;6.85;;;4.70;99.90;;;;;;5026427;28;20601;-82
2023/01/29 03:13:47;;;;;;;12.32;7.50;;;4.70;99.90;;;;;;5036516;28;20216;-83
2023/01/29 03:16:21;;;;;;;11.05;6.80;;;4.70;99.90;;;;;;5043292;28;20228;-83
2023/01/29 03:19:00;;;;;;;10.52;7.93;;;4.70;99.90;;;;;;5022262;28;20560;-82
2023/01/29 03:21:50;;;;;;;13.50;8.50;;;4.70;99.90;;;;;;5025242;28;20502;-83
2023/01/29 03:32:46;;;;;;;10.70;7.43;;;4.70;99.90;;;;;;5055454;28;20052;-82
2023/01/29 03:35:19;;;;;;;9.73;7.45;;;4.60;99.90;;;;;;5043800;28;20033;-83
2023/01/29 03:37:47;;;;;;;11.18;8.02;;;4.80;99.90;;;;;;5046231;28;20206;-83
2023/01/29 03:40:14;;;;;;;10.30;7.70;;;4.70;99.90;;;;;;5044863;28;20215;-82
2023/01/29 03:42:55;;;;;;;11.90;7.75;;;4.60;99.90;;;;;;5020166;28;20132;-82
2023/01/29 03:45:51;;;;;;;11.45;8.27;;;4.70;99.90;;;;;;5038972;28;20049;-83
2023/01/29 03:48:23;;;;;;;13.65;8.10;;;4.70;99.90;;;;;;5038662;28;20155;-82
2023/01/29 03:51:10;;;;;;;12.60;7.47;;;4.70;99.90;;;;;;5040043;28;20048;-82
2023/01/29 03:53:45;;;;;;;10.77;7.68;;;4.70;99.90;;;;;;5046744;28;20056;-81
2023/01/29 03:56:17;;;;;;;11.38;6.88;;;4.70;99.90;;;;;;5042365;28;20048;-82
2023/01/29 03:58:56;;;;;;;11.15;6.68;;;4.80;99.90;;;;;;5037109;28;20064;-81
2023/01/29 04:01:32;;;;;;;12.63;7.80;;;4.80;99.90;;;;;;5035822;28;20048;-82
2023/01/29 04:04:11;;;;;;;11.32;7.50;;;4.80;99.90;;;;;;5034639;28;20099;-81
2023/01/29 04:06:40;;;;;;;12.82;8.18;;;4.80;99.90;;;;;;5036133;28;20045;-82
2023/01/29 04:09:22;;;;;;;10.57;7.63;;;4.80;99.90;;;;;;5035472;28;20140;-82
2023/01/29 04:12:13;;;;;;;11.13;7.75;;;4.80;99.90;;;;;;5024674;28;20102;-82
2023/01/29 04:14:40;;;;;;;10.77;7.00;;;4.80;99.90;;;;;;5019267;28;20068;-82
2023/01/29 04:17:16;;;;;;;12.75;8.00;;;4.70;99.90;;;;;;5008991;28;20053;-82
2023/01/29 04:19:43;;;;;;;11.88;7.97;;;4.80;99.90;;;;;;5036697;28;20120;-82
2023/01/29 04:22:15;;;;;;;10.73;8.13;;;4.80;99.90;;;;;;5042618;28;20120;-82
2023/01/29 04:24:41;;;;;;;13.75;8.15;;;4.80;99.90;;;;;;5020521;28;20049;-83
2023/01/29 04:27:21;;;;;;;11.23;8.18;;;4.20;99.90;;;;;;5018566;28;20049;-82
2023/01/29 04:29:56;;;;;;;10.88;7.93;;;5.60;99.90;;;;;;5043293;28;20053;-82
2023/01/29 04:32:25;;;;;;;13.90;8.30;;;4.80;99.90;;;;;;5026309;28;20045;-82
2023/01/29 04:35:18;;;;;;;13.73;8.10;;;4.80;99.90;;;;;;5042433;28;20056;-82
2023/01/29 04:37:56;;;;;;;12.13;7.97;;;4.80;99.90;;;;;;5028707;28;20053;-81
2023/01/29 04:40:49;;;;;;;14.10;9.43;;;4.80;99.90;;;;;;5039940;28;20053;-82
2023/01/29 04:43:56;;;;;;;14.15;9.32;;;4.80;99.90;;;;;;5020038;28;20049;-82
2023/01/29 04:46:51;;;;;;;16.40;9.83;;;4.80;99.90;;;;;;4970646;28;20613;-82
2023/01/29 04:49:44;;;;;;;15.82;9.45;;;4.80;99.90;;;;;;5026198;28;20115;-82
2023/01/29 04:52:31;;;;;;;14.82;9.60;;;4.80;99.90;;;;;;5024244;28;20548;-83
2023/01/29 04:55:16;;;;;;;13.98;9.18;;;4.80;99.90;;;;;;5034155;28;20045;-82
2023/01/29 04:58:09;;;;;;;13.80;9.40;;;4.90;99.90;;;;;;5019386;28;20052;-82
2023/01/29 05:00:45;;;;;;;13.73;8.85;;;4.80;99.90;;;;;;5034637;28;20053;-82
2023/01/29 05:03:14;;;;;;;13.63;8.85;;;4.90;99.90;;;;;;5032736;28;20055;-82
2023/01/29 05:05:44;;;;;;;16.48;9.45;;;4.80;99.90;;;;;;5025398;28;20438;-83
2023/01/29 05:08:13;;;;;;;17.10;9.55;;;5.10;99.90;;;;;;5035223;28;20396;-83
2023/01/29 05:10:39;;;;;;;14.55;9.73;;;5.10;99.90;;;;;;5018209;28;20483;-83
2023/01/29 05:13:09;;;;;;;15.23;9.80;;;4.80;99.90;;;;;;5032624;28;20091;-83
2023/01/29 05:15:48;;;;;;;14.18;9.50;;;5.00;99.90;;;;;;5018229;28;20084;-84
2023/01/29 05:18:14;;;;;;;13.43;9.15;;;4.90;99.90;;;;;;5034088;28;20552;-83
2023/01/29 05:20:42;;;;;;;16.63;9.77;;;4.90;99.90;;;;;;5019682;28;20057;-83
2023/01/29 05:23:19;;;;;;;19.63;10.55;;;4.80;99.90;;;;;;5017075;28;20049;-83
2023/01/29 05:25:46;;;;;;;17.48;10.02;;;4.90;99.90;;;;;;5042400;28;20067;-82
2023/01/29 05:28:15;;;;;;;18.17;10.00;;;4.90;99.90;;;;;;5033617;28;20147;-82
2023/01/29 05:30:43;;;;;;;19.30;10.98;;;4.90;99.90;;;;;;5025571;28;20865;-83
2023/01/29 05:33:26;;;;;;;19.75;11.77;;;4.80;99.90;;;;;;5040891;28;20045;-82
2023/01/29 05:35:53;;;;;;;18.20;10.70;;;4.70;99.90;;;;;;5026316;28;20107;-82
2023/01/29 05:38:19;;;;;;;18.20;10.52;;;4.70;99.90;;;;;;5034034;28;20045;-83
2023/01/29 05:40:45;;;;;;;17.48;10.95;;;4.70;99.90;;;;;;5026844;28;20080;-83
2023/01/29 05:43:16;;;;;;;18.35;11.10;;;4.70;99.90;;;;;;5023071;28;20103;-81
2023/01/29 05:45:42;;;;;;;18.92;10.68;;;4.70;99.90;;;;;;5025953;28;20056;-83
2023/01/29 05:48:08;;;;;;;17.55;10.70;;;4.70;99.90;;;;;;5018498;28;20048;-83
2023/01/29 05:50:34;;;;;;;18.58;11.88;;;4.60;99.90;;;;;;5025961;28;20049;-83
2023/01/29 05:53:01;;;;;;;18.25;11.48;;;4.60;99.90;;;;;;5043843;28;20470;-83
2023/01/29 05:55:28;;;;;;;18.40;12.13;;;4.70;99.90;;;;;;5012885;28;20056;-83
2023/01/29 05:57:54;;;;;;;20.77;12.32;;;;;;;;;;5039891;28;20046;-82
2023/01/29 06:00:21;;;;;;;18.70;10.93;;;6.10;99.90;;;;;;5043077;28;20076;-83
2023/01/29 06:02:46;;;;;;;20.73;12.48;;;4.60;99.90;;;;;;5031217;28;20049;-83
2023/01/29 06:05:12;;;;;;;17.30;11.43;;;3.30;99.90;;;;;;5027626;28;20053;-83
2023/01/29 06:07:39;;;;;;;20.83;12.63;;;4.50;99.90;;;;;;5012809;28;20049;-83
2023/01/29 06:10:05;;;;;;;18.23;11.80;;;4.50;99.90;;;;;;5027876;28;20491;-83
2023/01/29 06:12:31;;;;;;;19.42;12.20;;;4.50;99.90;;;;;;5023875;28;20060;-84
2023/01/29 06:14:57;;;;;;;18.30;11.48;;;3.00;99.90;;;;;;5029646;28;20049;-82
2023/01/29 06:17:22;;;;;;;20.85;11.75;;;4.60;99.90;;;;;;5021305;28;20053;-83
2023/01/29 06:19:48;;;;;;;19.23;11.45;;;4.60;99.90;;;;;;5028303;28;20511;-83
2023/01/29 06:22:17;;;;;;;15.48;10.55;;;4.60;99.90;;;;;;5011191;28;20107;-83
2023/01/29 06:24:43;;;;;;;19.77;12.30;;;3.30;99.90;;;;;;5022182;28;20234;-83
2023/01/29 06:27:12;;;;;;;18.95;11.82;;;3.20;99.90;;;;;;5021700;28;20100;-84
2023/01/29 06:29:40;;;;;;;17.85;10.68;;;4.60;99.90;;;;;;5039452;28;20596;-84
2023/01/29 06:32:06;;;;;;;20.13;11.38;;;4.60;99.90;;;;;;5022884;28;20045;-81
2023/01/29 06:34:32;;;;;;;16.95;10.65;;;4.60;99.90;;;;;;5038607;28;20133;-81
2023/01/29 06:36:58;;;;;;;15.07;9.98;;;4.70;99.90;;;;;;5028062;28;20053;-82
2023/01/29 06:39:23;;;;;;;17.75;10.13;;;4.60;99.90;;;;;;5028971;28;20049;-81
2023/01/29 06:41:49;;;;;;;15.75;9.60;;;4.60;99.90;;;;;;5025122;28;20122;-81
2023/01/29 06:44:15;;;;;;;14.88;10.07;;;4.70;99.90;;;;;;5021606;28;20045;-83
2023/01/29 06:46:41;;;;;;;20.08;10.18;;;4.80;99.90;;;;;;5027620;28;20402;-81
2023/01/29 06:49:06;;;;;;;21.77;10.55;;;4.70;99.90;;;;;;5027383;28;20052;-81
2023/01/29 06:51:32;;;;;;;20.15;12.18;;;4.70;99.90;;;;;;5027159;28;20077;-81
2023/01/29 06:53:58;;;;;;;20.20;12.13;;;4.70;99.90;;;;;;5019901;28;20045;-81
2023/01/29 06:56:24;;;;;;;26.58;14.32;;;4.70;99.90;;;;;;5019638;28;20080;-85
2023/01/29 06:58:50;;;;;;;24.58;14.23;;;3.60;99.90;;;;;;5026953;28;20179;-81
2023/01/29 07:01:16;;;;;;;27.17;16.40;;;4.80;99.90;;;;;;5009271;28;20053;-81
2023/01/29 07:03:42;;;;;;;26.23;16.38;;;4.70;99.90;;;;;;5010579;28;20919;-82
2023/01/29 07:06:08;;;;;;;30.70;17.42;;;4.70;99.90;;;;;;5018950;28;20049;-82
2023/01/29 07:08:38;;;;;;;30.25;18.33;;;4.70;99.90;;;;;;5025508;28;20060;-82
2023/01/29 07:11:05;;;;;;;26.50;16.77;;;4.70;99.90;;;;;;5019006;28;20683;-82
2023/01/29 07:13:30;;;;;;;31.58;17.10;;;4.90;99.90;;;;;;5018061;28;20053;-82
2023/01/29 07:16:01;;;;;;;30.17;17.25;;;4.70;99.90;;;;;;5035352;28;20051;-82
2023/01/29 07:18:27;;;;;;;28.25;17.25;;;4.60;99.90;;;;;;5052347;28;20046;-81
2023/01/29 07:20:54;;;;;;;26.27;16.10;;;4.70;99.90;;;;;;5043744;28;20037;-82
2023/01/29 07:23:20;;;;;;;28.10;16.15;;;3.70;99.90;;;;;;5008980;28;20132;-82
2023/01/29 07:25:48;;;;;;;28.60;15.98;;;4.60;99.90;;;;;;5037048;28;20065;-81
2023/01/29 07:28:17;;;;;;;25.45;15.00;;;4.70;99.90;;;;;;5025227;28;20600;-85
2023/01/29 07:30:43;;;;;;;26.70;15.57;;;4.60;99.90;;;;;;5038127;28;20057;-84
2023/01/29 07:33:12;;;;;;;29.27;16.77;;;4.70;99.90;;;;;;5016010;28;20077;-84
2023/01/29 07:35:42;;;;;;;27.33;15.75;;;4.60;99.90;;;;;;5019350;28;20053;-85
2023/01/29 07:38:09;;;;;;;24.17;14.65;;;3.40;99.90;;;;;;5036560;28;20052;-87
2023/01/29 07:40:39;;;;;;;28.25;16.63;;;4.70;99.90;;;;;;5019471;28;20048;-84
2023/01/29 07:43:16;;;;;;;24.90;15.40;;;4.50;99.90;;;;;;5026595;28;20072;-85
2023/01/29 07:45:42;;;;;;;29.35;14.55;;;4.80;99.90;;;;;;5019142;28;20045;-85
2023/01/29 07:48:12;;;;;;;25.90;15.15;;;4.90;99.90;;;;;;5018554;28;20053;-85
2023/01/29 07:50:39;;;;;;;25.08;15.10;;;4.70;99.90;;;;;;5028228;28;20051;-84
2023/01/29 07:53:14;;;;;;;27.05;14.75;;;4.70;99.90;;;;;;5039099;28;20053;-84
2023/01/29 07:55:44;;;;;;;26.83;15.60;;;3.00;99.90;;;;;;5053143;28;20057;-85
2023/01/29 07:58:10;;;;;;;26.63;14.52;;;4.90;99.90;;;;;;5037828;28;20288;-86
2023/01/29 08:00:36;;;;;;;27.30;17.08;;;4.90;99.90;;;;;;5026589;28;20083;-85
2023/01/29 08:03:06;;;;;;;25.85;14.32;;;4.80;99.90;;;;;;5041613;28;20124;-86
2023/01/29 08:05:32;;;;;;;24.88;15.07;;;4.60;99.90;;;;;;5034428;28;20048;-87
2023/01/29 08:07:58;;;;;;;27.52;14.77;;;5.70;99.90;;;;;;5040417;28;20060;-85
2023/01/29 08:10:25;;;;;;;22.73;14.45;;;4.80;99.90;;;;;;5024174;28;20482;-86
2023/01/29 08:12:59;;;;;;;23.85;14.05;;;4.90;99.90;;;;;;5036275;28;20406;-84
2023/01/29 08:15:26;;;;;;;22.73;12.80;;;4.80;99.90;;;;;;5024901;28;20057;-82
2023/01/29 08:17:52;;;;;;;21.50;12.40;;;3.60;99.90;;;;;;5008623;28;20048;-77
2023/01/29 08:20:19;;;;;;;20.25;12.40;;;4.80;99.90;;;;;;5025151;28;20053;-82
2023/01/29 08:22:45;;;;;;;21.15;12.43;;;4.70;99.90;;;;;;5042687;28;20053;-84
2023/01/29 08:25:11;;;;;;;23.60;12.48;;;4.70;99.90;;;;;;5020722;28;20398;-83
2023/01/29 08:27:37;;;;;;;20.45;12.57;;;4.80;99.90;;;;;;5022733;28;20053;-82
2023/01/29 08:30:05;;;;;;;20.05;11.43;;;5.00;99.90;;;;;;5008739;28;20509;-83
2023/01/29 08:32:31;;;;;;;20.63;11.50;;;4.80;99.90;;;;;;5018013;28;20055;-82
2023/01/29 08:34:56;;;;;;;19.63;11.82;;;4.80;99.90;;;;;;5026523;28;20124;-83
2023/01/29 08:37:22;;;;;;;19.52;12.13;;;4.90;99.90;;;;;;5025567;28;20100;-83
2023/01/29 08:39:48;;;;;;;19.35;11.90;;;4.80;99.90;;;;;;5035273;28;20042;-83
2023/01/29 08:42:14;;;;;;;21.13;11.60;;;4.80;99.90;;;;;;5024923;28;20136;-83
2023/01/29 08:44:40;;;;;;;18.50;11.32;;;4.70;99.90;;;;;;5019782;28;20048;-82
2023/01/29 08:47:05;;;;;;;23.70;12.70;;;4.80;99.90;;;;;;5025732;28;20080;-81
2023/01/29 08:49:32;;;;;;;21.05;12.85;;;;;;;;;;5025093;28;20052;-84
2023/01/29 08:51:57;;;;;;;22.38;12.32;;;4.80;99.90;;;;;;5042283;28;20049;-83
2023/01/29 08:54:23;;;;;;;20.50;12.18;;;4.80;99.90;;;;;;5009533;28;20075;-83
2023/01/29 08:56:50;;;;;;;22.33;12.57;;;4.70;99.90;;;;;;5034745;28;20042;-83
2023/01/29 08:59:16;;;;;;;25.90;13.18;;;4.70;99.90;;;;;;5034405;28;20489;-83
2023/01/29 09:01:42;;;;;;;24.65;12.95;;;;;;;;;;5036117;28;20115;-83
2023/01/29 09:04:08;;;;;;;20.50;12.27;;;4.80;99.90;;;;;;5025158;28;20488;-83
2023/01/29 09:06:34;;;;;;;25.98;12.98;;;4.80;99.90;;;;;;5034619;28;20057;-83
2023/01/29 09:09:00;;;;;;;21.98;11.88;;;4.70;99.90;;;;;;5009875;28;20053;-83
2023/01/29 09:11:26;;;;;;;22.52;11.90;;;3.30;99.90;;;;;;5025857;28;20056;-83
2023/01/29 09:13:51;;;;;;;20.85;12.20;;;4.70;99.90;;;;;;5019457;28;20551;-82
2023/01/29 09:16:17;;;;;;;22.38;11.48;;;4.80;99.90;;;;;;5035974;28;20450;-83
2023/01/29 09:18:43;;;;;;;23.08;12.15;;;4.80;99.90;;;;;;5037319;28;20592;-82
2023/01/29 09:21:09;;;;;;;22.00;11.70;;;4.90;99.90;;;;;;5041177;28;20056;-82
2023/01/29 09:23:35;;;;;;;24.80;12.60;;;4.80;99.90;;;;;;5009439;28;20100;-83
2023/01/29 09:26:01;;;;;;;22.63;10.73;;;4.80;99.90;;;;;;5025530;28;20065;-83
2023/01/29 09:28:26;;;;;;;19.20;10.05;;;5.00;99.90;;;;;;5036978;28;20049;-83
2023/01/29 09:30:52;;;;;;;21.98;10.85;;;5.00;99.90;;;;;;5034095;28;20053;-82
2023/01/29 09:33:18;;;;;;;21.30;10.30;;;5.10;99.90;;;;;;5024696;28;20482;-83
2023/01/29 09:35:45;;;;;;;21.20;10.32;;;4.90;99.90;;;;;;5024340;28;20051;-83
2023/01/29 09:38:12;;;;;;;18.85;10.32;;;5.20;99.90;;;;;;5010025;28;20068;-83
2023/01/29 09:40:45;;;;;;;18.15;9.68;;;5.10;99.90;;;;;;5019497;28;20060;-82
2023/01/29 09:43:55;;;;;;;16.77;9.55;;;5.20;99.90;;;;;;5018621;28;20123;-84
2023/01/29 09:46:24;;;;;;;18.55;9.90;;;5.00;99.90;;;;;;4997848;28;20077;-83
2023/01/29 09:49:02;;;;;;;19.95;9.57;;;4.90;99.90;;;;;;4989760;28;20053;-83
2023/01/29 09:51:38;;;;;;;17.65;9.52;;;5.00;99.90;;;;;;5024044;28;20510;-83
2023/01/29 09:54:28;;;;;;;22.17;11.02;;;5.20;99.90;;;;;;5034227;28;20049;-83
2023/01/29 09:56:55;;;;;;;15.45;9.18;;;5.10;99.90;;;;;;5041166;28;20128;-82
2023/01/29 09:59:24;;;;;;;16.33;9.80;;;5.10;99.90;;;;;;5017960;28;20049;-83
2023/01/29 10:01:54;;;;;;;18.27;9.35;;;5.10;99.90;;;;;;5050486;28;20549;-82
2023/01/29 10:04:41;;;;;;;19.88;9.60;;;5.10;99.90;;;;;;5041353;28;20204;-82
2023/01/29 10:07:19;;;;;;;21.83;10.10;;;5.10;99.90;;;;;;5037021;28;20115;-83
2023/01/29 10:10:25;;;;;;;16.17;8.48;;;5.10;99.90;;;;;;5038376;28;20045;-83
2023/01/29 10:12:54;;;;;;;19.05;9.60;;;5.10;99.90;;;;;;5041891;28;20088;-83
2023/01/29 10:15:31;;;;;;;19.63;9.48;;;5.10;99.90;;;;;;5041223;28;20053;-83
2023/01/29 10:18:09;;;;;;;21.08;9.45;;;5.10;99.90;;;;;;5042066;28;20051;-81
2023/01/29 10:20:53;;;;;;;17.45;8.85;;;5.20;99.90;;;;;;5041524;28;20055;-80
2023/01/29 10:23:28;;;;;;;16.92;8.85;;;5.20;99.90;;;;;;5041718;28;20093;-81
2023/01/29 10:25:55;;;;;;;16.77;8.52;;;5.20;99.90;;;;;;5022515;28;20057;-81
2023/01/29 10:28:47;;;;;;;16.85;8.75;;;5.20;99.90;;;;;;5028042;28;20107;-81
2023/01/29 10:31:26;;;;;;;19.00;8.77;;;5.20;99.90;;;;;;5023074;28;20055;-82
2023/01/29 10:34:03;;;;;;;16.02;8.05;;;5.20;99.90;;;;;;5048479;28;20135;-82
2023/01/29 10:36:44;;;;;;;21.55;9.30;;;5.20;99.90;;;;;;5032940;28;20049;-82
2023/01/29 10:39:18;;;;;;;17.45;8.23;;;5.30;99.90;;;;;;5025978;28;20379;-81
2023/01/29 10:42:00;;;;;;;17.40;8.93;;;5.20;99.90;;;;;;5021218;28;20049;-82
2023/01/29 10:44:54;;;;;;;19.77;9.07;;;5.30;99.90;;;;;;5038270;28;20045;-82
2023/01/29 10:47:32;;;;;;;18.77;9.18;;;5.30;99.90;;;;;;5055952;28;20089;-81
2023/01/29 10:50:16;;;;;;;17.23;8.88;;;5.30;99.90;;;;;;5033479;28;20063;-82
2023/01/29 10:53:25;;;;;;;17.50;9.02;;;5.30;99.90;;;;;;5025217;28;20107;-81
2023/01/29 10:56:10;;;;;;;20.58;9.32;;;5.40;99.90;;;;;;5044825;28;20049;-82
2023/01/29 10:58:46;;;;;;;17.50;9.18;;;5.40;99.90;;;;;;5022692;28;20401;-82
2023/01/29 11:01:12;;;;;;;16.02;8.85;;;5.40;99.90;;;;;;5036998;28;20233;-82
2023/01/29 11:03:38;;;;;;;15.35;7.78;;;5.40;99.90;;;;;;5034088;28;20446;-82
2023/01/29 11:06:22;;;;;;;18.05;9.10;;;5.40;99.90;;;;;;5045331;28;20128;-82
2023/01/29 11:09:31;;;;;;;22.05;8.32;;;5.50;99.90;;;;;;5038296;28;20497;-82
2023/01/29 11:12:01;;;;;;;17.42;7.50;;;5.50;99.90;;;;;;5053168;28;20049;-82
2023/01/29 11:14:33;;;;;;;15.43;7.63;;;5.50;99.90;;;;;;5044951;28;20051;-82
2023/01/29 11:16:59;;;;;;;15.25;6.80;;;5.50;99.90;;;;;;5043775;28;20049;-81
2023/01/29 11:19:41;;;;;;;17.42;6.88;;;5.50;99.90;;;;;;5008941;28;20055;-82
2023/01/29 11:22:18;;;;;;;15.45;6.78;;;5.50;99.90;;;;;;5054846;28;20075;-82
2023/01/29 11:24:44;;;;;;;9.73;5.57;;;5.50;99.90;;;;;;5021156;28;20517;-82
2023/01/29 11:27:34;;;;;;;16.55;6.60;;;5.50;99.90;;;;;;5041209;28;20059;-82
2023/01/29 11:30:03;;;;;;;20.48;6.63;;;5.50;99.90;;;;;;5030513;28;20052;-81
2023/01/29 11:32:33;;;;;;;18.58;7.22;;;5.50;99.90;;;;;;5012378;28;20056;-82
2023/01/29 11:35:02;;;;;;;17.13;7.63;;;5.50;99.90;;;;;;5037533;28;20498;-82
2023/01/29 11:37:39;;;;;;;18.83;8.43;;;5.50;99.90;;;;;;5037362;28;20107;-82
2023/01/29 11:40:23;;;;;;;14.80;7.15;;;5.50;99.90;;;;;;5026445;28;20395;-83
2023/01/29 11:42:51;;;;;;;18.25;7.15;;;5.50;99.90;;;;;;5040326;28;20492;-81
2023/01/29 11:45:26;;;;;;;20.60;6.88;;;5.50;99.90;;;;;;5037288;28;20056;-81
2023/01/29 11:47:54;;;;;;;18.35;6.75;;;5.50;99.90;;;;;;5036286;28;20049;-82
2023/01/29 11:50:23;;;;;;;16.92;7.00;;;5.50;99.90;;;;;;5026784;28;20056;-82
2023/01/29 11:52:49;;;;;;;17.25;6.95;;;5.50;99.90;;;;;;5033883;28;20643;-82
2023/01/29 11:55:24;;;;;;;18.58;7.43;;;5.50;99.90;;;;;;5020073;28;20053;-81
2023/01/29 11:58:10;;;;;;;20.95;7.00;;;5.50;99.90;;;;;;5026045;28;20079;-82
2023/01/29 12:00:40;;;;;;;18.77;6.97;;;5.50;99.90;;;;;;5042517;28;20044;-82
2023/01/29 12:03:43;;;;;;;18.35;6.93;;;5.40;99.90;;;;;;5017999;28;20123;-82
2023/01/29 12:06:20;;;;;;;14.75;6.80;;;5.40;99.90;;;;;;5013765;28;20053;-83
2023/01/29 12:08:54;;;;;;;17.38;7.38;;;5.40;99.90;;;;;;5019709;28;20053;-83
2023/01/29 12:11:26;;;;;;;16.92;6.40;;;5.40;99.90;;;;;;5041951;28;20118;-81
2023/01/29 12:13:57;;;;;;;19.73;6.60;;;5.40;99.90;;;;;;5031299;28;20098;-82
2023/01/29 12:16:55;;;;;;;16.02;6.70;;;5.40;99.90;;;;;;5031140;28;20037;-85
2023/01/29 12:19:30;;;;;;;16.05;7.00;;;6.80;99.90;;;;;;5032522;28;20044;-85
2023/01/29 12:22:05;;;;;;;21.17;5.82;;;5.40;99.90;;;;;;5035733;28;20577;-86
2023/01/29 12:24:44;;;;;;;17.70;5.72;;;6.20;99.90;;;;;;5023396;28;20482;-83
2023/01/29 12:27:53;;;;;;;17.08;5.65;;;5.50;99.90;;;;;;5035881;28;20055;-86
2023/01/29 12:30:21;;;;;;;15.05;5.97;;;5.40;99.90;;;;;;4973489;28;20141;-85
2023/01/29 12:33:15;;;;;;;14.40;6.03;;;5.50;99.90;;;;;;5030740;28;20053;-84
2023/01/29 12:36:01;;;;;;;19.20;5.95;;;5.50;99.90;;;;;;5028471;28;21388;-82
2023/01/29 12:39:01;;;;;;;15.67;5.80;;;5.70;99.90;;;;;;5037211;28;20096;-85
2023/01/29 12:41:57;;;;;;;12.18;4.63;;;5.80;99.90;;;;;;5037411;28;20585;-83
2023/01/29 12:44:47;;;;;;;14.70;4.10;;;5.70;99.90;;;;;;5049663;28;20043;-83
2023/01/29 12:47:43;;;;;;;13.07;4.30;;;5.80;99.90;;;;;;5026031;28;20139;-84
2023/01/29 12:50:31;;;;;;;12.95;5.13;;;5.80;99.90;;;;;;5025647;28;20128;-85
2023/01/29 12:53:22;;;;;;;10.18;4.50;;;6.10;99.90;;;;;;5017553;28;20529;-82
2023/01/29 12:56:10;;;;;;;11.23;4.88;;;4.50;99.90;;;;;;5016069;28;20056;-82
2023/01/29 12:58:42;;;;;;;8.57;3.78;;;5.90;99.90;;;;;;5031492;28;20132;-82
2023/01/29 13:01:44;;;;;;;13.88;4.22;;;6.00;99.90;;;;;;5020077;28;20508;-82
2023/01/29 13:05:04;;;;;;;8.65;3.90;;;6.00;99.90;;;;;;5021888;28;20064;-83
2023/01/29 13:07:35;;;;;;;14.50;4.13;;;6.00;99.90;;;;;;4946331;28;20053;-81
2023/01/29 13:10:09;;;;;;;9.63;3.25;;;5.90;99.90;;;;;;5030920;28;20114;-88
2023/01/29 13:12:38;;;;;;;8.65;3.13;;;5.80;99.90;;;;;;5024847;28;20125;-84
2023/01/29 13:15:16;;;;;;;8.77;2.85;;;6.00;99.90;;;;;;5037087;28;20052;-87
2023/01/29 13:17:46;;;;;;;4.13;1.92;;;4.60;99.90;;;;;;5022218;28;20540;-86
2023/01/29 13:20:27;;;;;;;6.25;2.63;;;5.80;99.90;;;;;;5017617;28;20049;-84
2023/01/29 13:22:57;;;;;;;10.93;3.58;;;5.90;99.90;;;;;;5035828;28;20052;-85
2023/01/29 13:25:22;;;;;;;6.60;2.45;;;5.80;99.90;;;;;;5035798;28;20049;-87
2023/01/29 13:27:49;;;;;;;7.45;3.17;;;5.90;99.90;;;;;;5021299;28;20578;-86
2023/01/29 13:30:33;;;;;;;11.02;3.47;;;5.80;99.90;;;;;;5049740;28;20045;-84
2023/01/29 13:33:08;;;;;;;10.40;3.47;;;5.60;99.90;;;;;;5020601;28;20060;-84
2023/01/29 13:35:38;;;;;;;8.70;2.95;;;5.60;99.90;;;;;;5023531;28;20045;-86
2023/01/29 13:38:05;;;;;;;10.13;3.55;;;5.70;99.90;;;;;;5019201;28;20049;-84
2023/01/29 13:40:35;;;;;;;11.95;3.50;;;5.60;99.90;;;;;;5017825;28;20102;-85
2023/01/29 13:43:02;;;;;;;10.07;3.30;;;5.60;99.90;;;;;;5018883;28;20111;-86
2023/01/29 13:45:42;;;;;;;10.82;3.45;;;5.60;99.90;;;;;;5034703;28;20049;-85